Terminal Aerodrome Forecast
Issued by NWS

Home | Current Version | Previous Version | Text Only | Print | Product List | Glossary Off
Versions: 1 2 3 4 5 6 7 8 9 10 11 12 13 14 15 16 17 18 19 20 21 22 23 24 25 26 27 28

687
FTUS43 KPAH 230520
TAFOWB
TAF
KOWB 230520Z 2306/2406 09007KT P6SM SCT090 BKN150
     FM231400 13008KT P6SM BKN090 OVC180
     FM231800 16009KT P6SM BKN070
     FM232300 15006KT P6SM SCT060 BKN180
     FM240300 17012G18KT P6SM FEW040 BKN180=

USA.gov is the U.S. government's official web portal to all federal, state and local government web resources and services.